« Back
NWS Peachtree City, Ga » Text Product » CSG Terminal Aerodrome Forecast


Printer-friendly Version
Current Version              Previous Versions:   1  2  3  4  5  6  7  8  9  

Terminal Aerodrome Forecast

476
FTUS42 KFFC 291723
TAFCSG
TAF
KCSG 291723Z 2918/3018 21008KT P6SM BKN200
     FM292100 22009KT P6SM SCT120
     FM300200 23007KT P6SM BKN080
     FM300400 28009KT P6SM BKN025 PROB30 3005/3009 -RA BKN012
     FM301600 33012G23KT P6SM SCT045=



USA.gov is the U.S. government's official web portal to all federal, state and local government web resources and services.